Time;durP1;ratioP1;P1;durP2;ratioP2;P2;SDS_P1;SDS_P2;PMS_P1;PMS_P2;Temp;Humidity;BMP_temperature;BMP_pressure;BME280_temperature;BME280_humidity;BME280_pressure;Samples;Min_cycle;Max_cycle;Signal;HPM_P1;HPM_P2
2022/06/05 00:01:21;;;;;;;7.13;6.53;;;19.90;99.90;;;;;;5033859;28;20206;-78
2022/06/05 00:03:56;;;;;;;6.65;6.07;;;19.70;99.90;;;;;;5062033;28;20214;-78
2022/06/05 00:06:33;;;;;;;6.60;6.20;;;19.80;99.90;;;;;;5060495;28;20211;-78
2022/06/05 00:09:13;;;;;;;7.00;6.03;;;19.80;99.90;;;;;;5027334;28;20194;-78
2022/06/05 00:11:49;;;;;;;7.82;6.75;;;19.80;99.90;;;;;;5044311;28;20241;-79
2022/06/05 00:14:16;;;;;;;6.63;6.05;;;19.70;99.90;;;;;;5024803;28;20207;-79
2022/06/05 00:16:44;;;;;;;6.70;6.13;;;19.80;99.90;;;;;;5028524;28;20198;-78
2022/06/05 00:19:12;;;;;;;7.18;6.50;;;19.80;99.90;;;;;;5030237;28;20199;-78
2022/06/05 00:21:41;;;;;;;7.20;6.53;;;19.70;99.90;;;;;;5028818;28;20229;-78
2022/06/05 00:24:09;;;;;;;6.53;6.03;;;19.70;99.90;;;;;;5055142;28;20535;-78
2022/06/05 00:26:45;;;;;;;6.18;5.68;;;19.70;99.90;;;;;;5030127;28;20187;-80
2022/06/05 00:29:30;;;;;;;7.05;6.40;;;19.70;99.90;;;;;;5028408;28;20207;-78
2022/06/05 00:32:08;;;;;;;6.78;6.22;;;19.60;99.90;;;;;;5027119;28;20218;-78
2022/06/05 00:34:35;;;;;;;6.28;5.78;;;19.70;99.90;;;;;;5028180;28;20206;-78
2022/06/05 00:37:18;;;;;;;6.75;6.25;;;19.60;99.90;;;;;;5031396;28;20199;-78
2022/06/05 00:39:54;;;;;;;6.35;5.85;;;19.60;99.90;;;;;;5031241;28;20198;-78
2022/06/05 00:42:34;;;;;;;6.40;5.88;;;19.60;99.90;;;;;;5029901;28;20222;-78
2022/06/05 00:45:07;;;;;;;6.65;6.07;;;19.60;99.90;;;;;;5035889;28;20206;-78
2022/06/05 00:47:35;;;;;;;7.40;6.70;;;19.60;99.90;;;;;;5023899;28;20708;-79
2022/06/05 00:50:23;;;;;;;6.63;5.93;;;19.40;99.90;;;;;;5032603;28;20207;-78
2022/06/05 00:52:55;;;;;;;7.25;6.50;;;19.40;99.90;;;;;;5031242;28;20219;-78
2022/06/05 00:55:30;;;;;;;8.30;7.60;;;19.40;99.90;;;;;;5029485;28;20202;-78
2022/06/05 00:57:58;;;;;;;6.60;6.10;;;19.40;99.90;;;;;;5024084;28;20194;-79
2022/06/05 01:00:36;;;;;;;7.40;6.70;;;19.30;99.90;;;;;;5055262;28;20199;-78
2022/06/05 01:03:09;;;;;;;6.32;5.82;;;19.20;99.90;;;;;;5027395;28;20704;-78
2022/06/05 01:05:37;;;;;;;6.90;6.40;;;19.40;99.90;;;;;;5057932;28;20218;-79
2022/06/05 01:08:08;;;;;;;7.00;6.30;;;19.30;99.90;;;;;;5026366;28;20207;-79
2022/06/05 01:10:42;;;;;;;7.30;6.80;;;19.30;99.90;;;;;;5023682;28;20203;-78
2022/06/05 01:13:23;;;;;;;7.60;6.93;;;19.20;99.90;;;;;;5024781;28;20333;-78
2022/06/05 01:15:57;;;;;;;7.00;6.50;;;19.10;99.90;;;;;;5023879;28;20665;-78
2022/06/05 01:18:31;;;;;;;7.72;7.03;;;19.20;99.90;;;;;;5027431;28;20215;-78
2022/06/05 01:21:12;;;;;;;7.78;7.07;;;19.10;99.90;;;;;;5022814;28;20199;-79
2022/06/05 01:23:54;;;;;;;8.00;7.20;;;19.10;99.90;;;;;;5027354;28;20226;-78
2022/06/05 01:26:29;;;;;;;7.22;6.68;;;19.00;99.90;;;;;;5029909;28;20198;-78
2022/06/05 01:29:37;;;;;;;7.65;7.10;;;19.10;99.90;;;;;;5025508;28;20218;-79
2022/06/05 01:32:08;;;;;;;8.00;7.40;;;19.00;99.90;;;;;;5027039;28;20727;-78
2022/06/05 01:34:40;;;;;;;8.68;7.88;;;19.10;99.90;;;;;;5022244;28;20568;-78
2022/06/05 01:37:13;;;;;;;8.77;7.97;;;18.90;99.90;;;;;;5025743;28;20214;-78
2022/06/05 01:39:48;;;;;;;8.75;7.95;;;19.00;99.90;;;;;;5027418;28;20214;-78
2022/06/05 01:42:22;;;;;;;9.05;8.25;;;19.00;99.90;;;;;;5022022;28;20241;-78
2022/06/05 01:44:55;;;;;;;8.73;7.93;;;18.90;99.90;;;;;;5029444;28;20217;-78
2022/06/05 01:47:35;;;;;;;8.77;8.13;;;18.90;99.90;;;;;;5024226;28;20553;-78
2022/06/05 01:50:12;;;;;;;8.50;7.70;;;18.90;99.90;;;;;;5026886;28;20546;-78
2022/06/05 01:52:45;;;;;;;8.02;7.32;;;18.70;99.90;;;;;;5029434;28;20222;-78
2022/06/05 01:55:20;;;;;;;8.63;7.82;;;18.90;99.90;;;;;;5024627;28;20567;-78
2022/06/05 01:57:53;;;;;;;8.68;7.97;;;18.60;99.90;;;;;;5025705;28;20194;-80
2022/06/05 02:00:22;;;;;;;8.55;7.85;;;18.60;99.90;;;;;;5026099;28;20557;-78
2022/06/05 02:03:12;;;;;;;9.20;8.35;;;18.70;99.90;;;;;;5027604;28;20227;-78
2022/06/05 02:05:45;;;;;;;8.70;8.00;;;18.70;99.90;;;;;;5023001;28;20202;-78
2022/06/05 02:08:15;;;;;;;8.55;7.85;;;18.70;99.90;;;;;;5023682;28;20207;-78
2022/06/05 02:10:48;;;;;;;9.27;8.48;;;18.70;99.90;;;;;;5031199;28;20194;-78
2022/06/05 02:13:17;;;;;;;8.50;7.80;;;18.50;99.90;;;;;;5026141;28;20214;-78
2022/06/05 02:15:58;;;;;;;8.77;8.07;;;18.50;99.90;;;;;;5038666;28;20195;-79
2022/06/05 02:18:26;;;;;;;9.50;8.68;;;18.50;99.90;;;;;;5023483;28;20661;-78
2022/06/05 02:20:54;;;;;;;8.85;8.13;;;18.40;99.90;;;;;;5021569;28;20226;-78
2022/06/05 02:23:25;;;;;;;9.05;8.25;;;18.40;99.90;;;;;;5025652;28;20684;-78
2022/06/05 02:25:52;;;;;;;9.32;8.52;;;18.40;99.90;;;;;;5024634;28;20195;-78
2022/06/05 02:28:30;;;;;;;8.90;8.20;;;18.30;99.90;;;;;;5027452;28;20201;-78
2022/06/05 02:31:08;;;;;;;8.45;7.85;;;18.40;99.90;;;;;;5024647;28;20198;-78
2022/06/05 02:33:48;;;;;;;9.13;8.32;;;18.30;99.90;;;;;;5024844;28;20556;-78
2022/06/05 02:36:27;;;;;;;9.75;8.90;;;18.30;99.90;;;;;;5022922;28;20207;-78
2022/06/05 02:39:11;;;;;;;9.38;8.68;;;18.30;99.90;;;;;;5025814;28;20190;-78
2022/06/05 02:41:48;;;;;;;9.18;8.48;;;18.20;99.90;;;;;;5029455;28;20218;-78
2022/06/05 02:44:30;;;;;;;9.13;8.40;;;18.00;99.90;;;;;;5032495;28;20210;-78
2022/06/05 02:47:12;;;;;;;8.85;8.15;;;18.00;99.90;;;;;;5032706;28;20186;-78
2022/06/05 02:49:46;;;;;;;9.80;9.00;;;18.20;99.90;;;;;;5034518;28;20201;-79
2022/06/05 02:52:14;;;;;;;9.70;8.73;;;18.20;99.90;;;;;;5029718;28;20215;-78
2022/06/05 02:54:46;;;;;;;9.23;8.43;;;18.20;99.90;;;;;;5030817;28;20242;-78
2022/06/05 02:57:14;;;;;;;8.30;7.53;;;18.40;99.90;;;;;;5037535;28;20200;-78
2022/06/05 02:59:42;;;;;;;8.65;7.90;;;18.50;99.90;;;;;;5028803;28;20202;-78
2022/06/05 03:04:56;;;;;;;9.27;8.50;;;18.50;99.90;;;;;;5034296;28;20206;-79
2022/06/05 03:07:24;;;;;;;9.70;8.80;;;18.30;99.90;;;;;;5031104;28;20199;-78
2022/06/05 03:09:52;;;;;;;9.35;8.60;;;18.30;99.90;;;;;;5063370;28;20541;-78
2022/06/05 03:12:19;;;;;;;9.80;9.00;;;18.30;99.90;;;;;;5028564;28;20226;-78
2022/06/05 03:14:48;;;;;;;9.52;8.73;;;18.00;99.90;;;;;;5026186;28;20223;-78
2022/06/05 03:17:16;;;;;;;9.25;8.55;;;18.00;99.90;;;;;;5027503;28;20187;-78
2022/06/05 03:19:44;;;;;;;9.38;8.57;;;17.80;99.90;;;;;;5029064;28;20187;-78
2022/06/05 03:22:11;;;;;;;9.30;8.60;;;17.90;99.90;;;;;;5028096;28;20238;-78
2022/06/05 03:24:39;;;;;;;10.65;9.65;;;17.80;99.90;;;;;;5014974;28;20219;-79
2022/06/05 03:27:06;;;;;;;10.02;9.13;;;17.70;99.90;;;;;;5030663;28;20195;-78
2022/06/05 03:29:34;;;;;;;9.75;9.00;;;17.80;99.90;;;;;;5028080;28;20578;-78
2022/06/05 03:32:03;;;;;;;9.68;8.88;;;17.70;99.90;;;;;;5034072;28;20222;-79
2022/06/05 03:34:31;;;;;;;9.50;8.77;;;17.80;99.90;;;;;;5032559;28;20213;-78
2022/06/05 03:36:58;;;;;;;10.63;9.80;;;17.60;99.90;;;;;;5031543;28;20198;-78
2022/06/05 03:39:26;;;;;;;10.23;9.43;;;17.60;99.90;;;;;;5031324;28;20569;-78
2022/06/05 03:41:53;;;;;;;10.70;9.75;;;17.70;99.90;;;;;;5029545;28;20226;-78
2022/06/05 03:44:21;;;;;;;9.30;8.45;;;17.90;99.90;;;;;;5031714;28;20219;-80
2022/06/05 03:46:51;;;;;;;9.75;8.85;;;17.80;99.90;;;;;;5032268;28;20206;-78
2022/06/05 03:49:20;;;;;;;10.18;9.27;;;17.90;99.90;;;;;;5032624;28;20214;-78
2022/06/05 03:51:48;;;;;;;10.23;9.32;;;17.80;99.90;;;;;;5030118;28;20229;-78
2022/06/05 03:54:15;;;;;;;9.80;9.00;;;17.80;99.90;;;;;;5039892;28;20202;-78
2022/06/05 03:56:43;;;;;;;9.68;8.77;;;17.70;99.90;;;;;;5029417;28;20199;-78
2022/06/05 03:59:10;;;;;;;9.90;9.10;;;17.70;99.90;;;;;;5030913;28;20213;-78
2022/06/05 04:01:42;;;;;;;10.07;9.10;;;17.70;99.90;;;;;;5026547;28;20231;-80
2022/06/05 04:04:09;;;;;;;10.30;9.30;;;17.70;99.90;;;;;;5031487;28;20589;-78
2022/06/05 04:06:38;;;;;;;10.23;9.23;;;17.60;99.90;;;;;;5028324;28;20203;-78
2022/06/05 04:09:08;;;;;;;10.40;9.45;;;17.60;99.90;;;;;;5029556;28;20206;-78
2022/06/05 04:11:38;;;;;;;9.70;8.80;;;17.70;99.90;;;;;;5028965;28;20222;-78
2022/06/05 04:14:07;;;;;;;9.43;8.63;;;17.80;99.90;;;;;;5031158;28;20233;-79
2022/06/05 04:16:36;;;;;;;9.63;8.73;;;17.90;99.90;;;;;;5027392;28;20218;-78
2022/06/05 04:19:05;;;;;;;9.40;8.60;;;18.00;99.90;;;;;;5025273;28;20221;-78
2022/06/05 04:21:35;;;;;;;9.45;8.52;;;18.00;99.90;;;;;;5031318;28;20226;-79
2022/06/05 04:24:05;;;;;;;9.00;8.30;;;18.10;99.90;;;;;;5025534;28;20222;-78
2022/06/05 04:26:34;;;;;;;9.32;8.48;;;18.20;99.90;;;;;;5027125;28;20210;-78
2022/06/05 04:29:02;;;;;;;9.25;8.55;;;18.20;99.90;;;;;;5028355;28;20207;-80
2022/06/05 04:31:33;;;;;;;8.85;8.13;;;18.20;99.90;;;;;;5056009;28;20227;-78
2022/06/05 04:34:03;;;;;;;9.05;8.25;;;18.20;99.90;;;;;;5058643;28;20218;-78
2022/06/05 04:36:31;;;;;;;8.55;7.95;;;18.20;99.90;;;;;;5032921;28;20205;-78
2022/06/05 04:38:58;;;;;;;8.93;8.07;;;18.10;99.90;;;;;;5030852;28;20198;-78
2022/06/05 04:41:28;;;;;;;8.70;8.00;;;18.20;99.90;;;;;;5025967;28;20677;-78
2022/06/05 04:43:57;;;;;;;8.82;8.13;;;18.20;99.90;;;;;;5024811;28;20203;-78
2022/06/05 04:46:27;;;;;;;9.13;8.32;;;18.20;99.90;;;;;;5028278;28;20573;-78
2022/06/05 04:48:55;;;;;;;8.93;8.10;;;18.20;99.90;;;;;;5027979;28;20668;-78
2022/06/05 04:51:24;;;;;;;9.13;8.30;;;18.20;99.90;;;;;;5026928;28;20206;-78
2022/06/05 04:53:53;;;;;;;10.20;9.23;;;18.30;99.90;;;;;;5021913;28;20206;-78
2022/06/05 04:56:32;;;;;;;9.50;8.80;;;18.40;99.90;;;;;;5028235;28;20577;-78
2022/06/05 04:59:00;;;;;;;9.48;8.65;;;18.30;99.90;;;;;;5028510;28;20199;-78
2022/06/05 05:01:30;;;;;;;9.27;8.48;;;18.30;99.90;;;;;;5025060;28;20219;-78
2022/06/05 05:04:00;;;;;;;9.25;8.50;;;18.30;99.90;;;;;;5027144;28;20201;-79
2022/06/05 05:06:29;;;;;;;9.23;8.43;;;18.30;99.90;;;;;;5024021;28;20565;-79
2022/06/05 05:08:57;;;;;;;8.93;8.13;;;18.30;99.90;;;;;;5027844;28;20218;-79
2022/06/05 05:11:27;;;;;;;9.07;8.27;;;18.30;99.90;;;;;;5031164;28;20191;-78
2022/06/05 05:13:58;;;;;;;8.75;8.05;;;18.20;99.90;;;;;;5018219;28;20211;-78
2022/06/05 05:16:27;;;;;;;9.05;8.30;;;18.30;99.90;;;;;;5024121;28;20198;-78
2022/06/05 05:18:55;;;;;;;9.05;8.15;;;18.30;99.90;;;;;;5034727;28;20214;-80
2022/06/05 05:21:24;;;;;;;8.98;8.15;;;18.20;99.90;;;;;;5038358;28;20203;-78
2022/06/05 05:23:52;;;;;;;8.93;8.13;;;18.30;99.90;;;;;;5023162;28;20211;-79
2022/06/05 05:26:25;;;;;;;8.30;7.60;;;18.30;99.90;;;;;;5026805;28;20695;-78
2022/06/05 05:29:00;;;;;;;8.45;7.65;;;18.40;99.90;;;;;;5057543;28;20206;-80
2022/06/05 05:31:30;;;;;;;7.95;7.30;;;18.50;99.90;;;;;;5045797;28;20214;-78
2022/06/05 05:33:59;;;;;;;9.00;8.18;;;18.50;99.90;;;;;;5027914;28;20673;-78
2022/06/05 05:36:29;;;;;;;7.70;7.00;;;18.60;99.90;;;;;;5017457;28;20217;-83
2022/06/05 05:44:48;;;;;;;9.93;8.50;;;19.10;99.90;;;;;;5024734;28;20199;-78
2022/06/05 05:47:23;;;;;;;7.15;6.47;;;19.20;99.90;;;;;;5020446;28;20194;-77
2022/06/05 05:49:55;;;;;;;7.38;6.88;;;19.40;99.90;;;;;;5021748;28;20202;-77
2022/06/05 05:52:26;;;;;;;8.52;7.53;;;19.20;99.90;;;;;;5021490;28;20684;-79
2022/06/05 05:54:58;;;;;;;8.25;7.45;;;19.30;99.90;;;;;;5023550;28;20191;-80
2022/06/05 05:57:28;;;;;;;6.55;5.95;;;19.20;99.90;;;;;;5052503;28;20195;-78
2022/06/05 05:59:58;;;;;;;8.77;7.80;;;19.30;99.90;;;;;;5017262;28;20199;-78
2022/06/05 06:02:32;;;;;;;8.18;7.47;;;19.50;99.90;;;;;;5027685;28;20226;-78
2022/06/05 06:04:59;;;;;;;8.90;8.00;;;19.50;99.90;;;;;;5024165;28;20222;-77
2022/06/05 06:07:27;;;;;;;12.55;7.30;;;19.50;99.90;;;;;;5024454;28;20198;-79
2022/06/05 06:09:54;;;;;;;12.95;7.65;;;19.60;99.90;;;;;;5021437;28;20207;-79
2022/06/05 06:12:22;;;;;;;8.98;7.30;;;19.50;99.90;;;;;;5029563;28;20221;-81
2022/06/05 06:14:50;;;;;;;8.02;7.00;;;19.80;99.90;;;;;;5019321;28;20214;-79
2022/06/05 06:17:21;;;;;;;7.80;7.20;;;19.70;99.90;;;;;;5020472;28;20198;-79
2022/06/05 06:19:54;;;;;;;8.35;7.60;;;19.70;99.90;;;;;;5055474;28;20213;-79
2022/06/05 06:22:21;;;;;;;8.90;8.20;;;19.70;99.90;;;;;;5016246;28;20242;-79
2022/06/05 06:24:50;;;;;;;7.40;6.70;;;19.50;99.90;;;;;;5023531;28;20191;-79
2022/06/05 06:27:17;;;;;;;8.85;8.10;;;19.60;99.90;;;;;;5020738;28;20199;-79
2022/06/05 06:29:48;;;;;;;8.35;7.55;;;19.40;99.90;;;;;;5027589;28;20210;-80
2022/06/05 06:32:15;;;;;;;9.02;7.90;;;19.40;99.90;;;;;;5030461;28;20222;-79
2022/06/05 06:34:44;;;;;;;8.70;8.02;;;19.40;99.90;;;;;;5030910;28;20195;-81
2022/06/05 06:37:12;;;;;;;9.02;8.20;;;19.40;99.90;;;;;;5056088;28;20198;-82
2022/06/05 06:39:39;;;;;;;8.70;7.95;;;19.40;99.90;;;;;;5030773;28;20207;-79
2022/06/05 06:42:07;;;;;;;8.13;7.53;;;19.20;99.90;;;;;;5028091;28;20219;-80
2022/06/05 06:44:50;;;;;;;8.38;7.72;;;19.10;99.90;;;;;;5032198;28;20635;-79
2022/06/05 06:47:18;;;;;;;8.43;7.63;;;19.20;99.90;;;;;;5027546;28;20241;-79
2022/06/05 06:49:47;;;;;;;8.55;7.80;;;19.20;99.90;;;;;;5029321;28;20589;-79
2022/06/05 06:52:15;;;;;;;8.45;7.75;;;19.00;99.90;;;;;;5022859;28;20909;-79
2022/06/05 06:54:42;;;;;;;8.23;7.53;;;19.20;99.90;;;;;;5044287;28;20207;-81
2022/06/05 06:57:10;;;;;;;8.77;7.88;;;19.00;99.90;;;;;;5027492;28;20203;-81
2022/06/05 06:59:38;;;;;;;8.10;7.50;;;18.80;99.90;;;;;;5028381;28;20199;-82
2022/06/05 07:02:05;;;;;;;8.20;7.50;;;18.90;99.90;;;;;;5029718;28;20214;-82
2022/06/05 07:04:33;;;;;;;8.63;7.90;;;18.90;99.90;;;;;;5030126;28;20691;-82
2022/06/05 07:07:02;;;;;;;9.68;8.80;;;18.90;99.90;;;;;;5029896;28;20214;-81
2022/06/05 07:09:30;;;;;;;9.25;8.55;;;19.00;99.90;;;;;;5031709;28;20210;-81
2022/06/05 07:12:34;;;;;;;9.00;8.27;;;19.00;99.90;;;;;;5029396;28;20223;-82
2022/06/05 07:15:02;;;;;;;8.68;7.88;;;19.00;99.90;;;;;;5059080;28;20203;-81
2022/06/05 07:17:32;;;;;;;8.15;7.55;;;19.10;99.90;;;;;;5028107;28;20191;-81
2022/06/05 07:20:00;;;;;;;8.35;7.60;;;19.20;99.90;;;;;;5029526;28;20202;-81
2022/06/05 07:22:29;;;;;;;8.45;7.63;;;19.30;99.90;;;;;;5024699;28;20219;-81
2022/06/05 07:24:58;;;;;;;7.85;7.22;;;19.10;99.90;;;;;;5029836;28;20195;-79
2022/06/05 07:27:26;;;;;;;8.88;8.00;;;18.90;99.90;;;;;;5029632;28;20218;-80
2022/06/05 07:29:55;;;;;;;8.68;7.90;;;19.10;99.90;;;;;;5031408;28;20206;-79
2022/06/05 07:32:23;;;;;;;8.90;8.20;;;19.10;99.90;;;;;;5035174;28;20231;-79
2022/06/05 07:34:50;;;;;;;8.82;8.13;;;19.10;99.90;;;;;;5033446;28;20203;-79
2022/06/05 07:37:18;;;;;;;8.55;7.85;;;19.10;99.90;;;;;;5028592;28;20183;-79
2022/06/05 07:39:47;;;;;;;9.65;8.85;;;19.20;99.90;;;;;;5032432;28;20195;-79
2022/06/05 07:42:17;;;;;;;8.70;7.75;;;19.10;99.90;;;;;;5032801;28;20207;-79
2022/06/05 07:44:45;;;;;;;8.57;7.88;;;19.10;99.90;;;;;;5032631;28;20210;-79
2022/06/05 07:47:12;;;;;;;8.90;8.10;;;19.20;99.90;;;;;;5033376;28;20215;-79
2022/06/05 07:49:40;;;;;;;9.45;8.48;;;19.20;99.90;;;;;;5030433;28;20658;-79
2022/06/05 07:54:58;;;;;;;8.60;7.97;;;19.40;99.90;;;;;;5033574;28;20202;-79
2022/06/05 07:57:26;;;;;;;9.00;8.30;;;19.40;99.90;;;;;;5028619;28;20191;-79
2022/06/05 07:59:53;;;;;;;8.75;8.05;;;19.50;99.90;;;;;;5046385;28;20207;-79
2022/06/05 08:02:23;;;;;;;9.07;8.27;;;19.50;99.90;;;;;;5064933;28;20223;-79
2022/06/05 08:05:29;;;;;;;9.13;8.43;;;19.50;99.90;;;;;;5033965;28;20558;-79
2022/06/05 08:07:57;;;;;;;8.77;8.07;;;19.70;99.90;;;;;;5032313;28;20229;-79
2022/06/05 08:10:26;;;;;;;9.50;8.65;;;19.70;99.90;;;;;;5025626;28;20196;-79
2022/06/05 08:12:54;;;;;;;9.35;8.55;;;19.70;99.90;;;;;;5034007;28;20215;-79
2022/06/05 08:15:22;;;;;;;9.32;8.45;;;19.70;99.90;;;;;;5036436;28;20700;-79
2022/06/05 08:17:50;;;;;;;9.20;8.52;;;20.00;99.90;;;;;;5047606;28;20199;-79
2022/06/05 08:20:19;;;;;;;9.18;8.45;;;20.10;99.90;;;;;;5036501;28;20206;-81
2022/06/05 08:22:46;;;;;;;8.73;8.02;;;20.20;99.90;;;;;;5028854;28;20593;-81
2022/06/05 08:25:14;;;;;;;9.18;8.30;;;20.40;99.90;;;;;;5031241;28;20201;-81
2022/06/05 08:27:43;;;;;;;8.70;8.00;;;20.40;99.90;;;;;;5046998;28;20709;-82
2022/06/05 08:30:11;;;;;;;8.82;8.13;;;20.50;99.90;;;;;;5032996;28;20191;-81
2022/06/05 08:32:38;;;;;;;8.75;7.72;;;20.70;99.90;;;;;;5032172;28;20215;-82
2022/06/05 08:35:09;;;;;;;9.90;8.93;;;21.00;99.90;;;;;;5024873;28;20195;-79
2022/06/05 08:43:39;;;;;;;8.63;7.93;;;21.20;99.90;;;;;;5053717;28;20211;-80
2022/06/05 08:46:12;;;;;;;9.25;8.43;;;21.40;99.90;;;;;;5043777;28;20568;-79
2022/06/05 08:48:54;;;;;;;8.00;7.40;;;21.50;99.90;;;;;;5028441;28;20195;-78
2022/06/05 08:51:27;;;;;;;8.48;7.68;;;21.60;99.90;;;;;;5025606;28;20199;-79
2022/06/05 08:54:02;;;;;;;8.45;7.65;;;21.80;99.90;;;;;;5039105;28;20680;-78
2022/06/05 08:56:35;;;;;;;8.20;7.50;;;22.20;99.90;;;;;;5030514;28;20195;-80
2022/06/05 08:59:16;;;;;;;7.95;7.35;;;22.40;99.90;;;;;;5029163;28;20574;-79
2022/06/05 09:01:52;;;;;;;8.02;7.22;;;22.50;99.90;;;;;;5027461;28;20230;-79
2022/06/05 09:04:29;;;;;;;8.43;7.75;;;22.50;99.90;;;;;;5021429;28;20203;-84
2022/06/05 09:07:00;;;;;;;8.43;7.82;;;22.40;99.90;;;;;;5024667;28;20707;-78
2022/06/05 09:09:35;;;;;;;8.73;8.05;;;22.30;99.90;;;;;;5029251;28;20195;-79
2022/06/05 09:12:07;;;;;;;8.35;7.55;;;22.30;99.90;;;;;;5031340;28;20677;-79
2022/06/05 09:14:42;;;;;;;7.80;7.20;;;22.40;99.90;;;;;;5041968;28;20226;-79
2022/06/05 09:17:13;;;;;;;8.68;7.97;;;22.30;99.90;;;;;;5041489;28;20197;-80
2022/06/05 09:19:42;;;;;;;8.07;7.47;;;22.40;99.90;;;;;;5026199;28;20187;-81
2022/06/05 09:22:16;;;;;;;8.60;7.90;;;22.40;99.90;;;;;;5040791;28;20226;-78
2022/06/05 09:25:12;;;;;;;8.05;7.30;;;22.40;99.90;;;;;;5035480;28;20213;-78
2022/06/05 09:27:49;;;;;;;9.02;8.23;;;22.40;99.90;;;;;;5033850;28;20226;-79
2022/06/05 09:30:39;;;;;;;9.27;8.55;;;22.50;99.90;;;;;;5025108;28;20229;-78
2022/06/05 09:33:30;;;;;;;8.95;8.27;;;22.50;99.90;;;;;;5028065;28;20215;-78
2022/06/05 09:36:02;;;;;;;15.70;12.82;;;22.50;99.90;;;;;;5023706;28;20202;-79
2022/06/05 09:38:40;;;;;;;14.02;12.73;;;22.40;99.90;;;;;;5024850;28;20195;-78
2022/06/05 09:41:26;;;;;;;19.95;15.50;;;22.30;99.90;;;;;;5038375;28;20212;-78
2022/06/05 09:44:08;;;;;;;23.42;18.23;;;22.30;99.90;;;;;;5026994;28;20214;-78
2022/06/05 09:46:52;;;;;;;12.02;10.93;;;22.30;99.90;;;;;;5032042;28;20195;-79
2022/06/05 09:49:26;;;;;;;23.85;17.85;;;22.20;99.90;;;;;;5026146;28;20214;-78
2022/06/05 09:51:54;;;;;;;19.90;16.85;;;22.20;99.90;;;;;;5025516;28;20214;-79
2022/06/05 09:54:44;;;;;;;13.32;12.13;;;22.20;99.90;;;;;;5024477;28;20195;-78
2022/06/05 10:00:29;;;;;;;11.73;10.68;;;22.30;99.90;;;;;;5026765;28;20198;-78
2022/06/05 10:03:04;;;;;;;11.75;10.75;;;22.30;99.90;;;;;;5024449;28;20727;-78
2022/06/05 10:05:34;;;;;;;9.98;9.15;;;22.30;99.90;;;;;;5023532;28;20202;-79
2022/06/05 10:08:07;;;;;;;10.43;9.43;;;22.40;99.90;;;;;;5024139;28;20215;-78
2022/06/05 10:10:47;;;;;;;9.23;8.57;;;22.40;99.90;;;;;;5023192;28;20669;-82
2022/06/05 10:13:23;;;;;;;9.10;8.40;;;22.50;99.90;;;;;;5018185;28;20241;-78
2022/06/05 10:15:57;;;;;;;10.32;9.43;;;22.50;99.90;;;;;;5022032;28;20209;-78
2022/06/05 10:18:30;;;;;;;9.25;8.55;;;22.60;99.90;;;;;;5016362;28;20203;-78
2022/06/05 10:21:20;;;;;;;9.43;8.50;;;22.60;99.90;;;;;;5021120;28;20207;-81
2022/06/05 10:23:54;;;;;;;8.88;8.05;;;22.50;99.90;;;;;;5022036;28;20202;-78
2022/06/05 10:26:29;;;;;;;8.98;8.18;;;22.40;99.90;;;;;;5060310;28;20195;-77
2022/06/05 10:29:10;;;;;;;8.07;7.45;;;22.20;99.90;;;;;;5027390;28;20206;-78
2022/06/05 10:31:42;;;;;;;8.07;7.38;;;21.90;99.90;;;;;;5025201;28;20579;-78
2022/06/05 10:34:20;;;;;;;8.18;7.57;;;21.70;99.90;;;;;;5020389;28;20658;-78
2022/06/05 10:37:11;;;;;;;8.07;7.45;;;21.40;99.90;;;;;;5060809;28;20539;-78
2022/06/05 10:39:55;;;;;;;8.38;7.68;;;21.40;99.90;;;;;;5026719;28;20195;-78
2022/06/05 10:42:36;;;;;;;7.70;7.10;;;21.30;99.90;;;;;;5024091;28;20226;-78
2022/06/05 10:45:16;;;;;;;7.75;7.25;;;21.30;99.90;;;;;;5040038;28;20200;-78
2022/06/05 10:48:07;;;;;;;7.97;7.47;;;21.30;99.90;;;;;;5025684;28;20215;-78
2022/06/05 10:50:44;;;;;;;9.20;8.30;;;21.20;99.90;;;;;;5027099;28;20205;-78
2022/06/05 10:53:15;;;;;;;9.57;8.88;;;21.10;99.90;;;;;;5027336;28;20226;-78
2022/06/05 10:55:57;;;;;;;9.60;8.90;;;21.00;99.90;;;;;;5026923;28;20206;-78
2022/06/05 10:58:33;;;;;;;9.30;8.60;;;20.90;99.90;;;;;;5026625;28;20191;-78
2022/06/05 11:01:06;;;;;;;9.27;8.57;;;20.80;99.90;;;;;;5035184;28;20210;-78
2022/06/05 11:03:49;;;;;;;9.98;9.18;;;20.70;99.90;;;;;;5033824;28;20227;-78
2022/06/05 11:06:36;;;;;;;9.50;8.77;;;20.80;99.90;;;;;;5032369;28;20195;-78
2022/06/05 11:09:25;;;;;;;10.23;9.52;;;20.50;99.90;;;;;;5031732;28;20222;-78
2022/06/05 11:14:56;;;;;;;10.60;9.75;;;20.40;99.90;;;;;;5031187;28;20206;-78
2022/06/05 11:17:49;;;;;;;9.77;8.88;;;20.40;99.90;;;;;;5028217;28;20198;-78
2022/06/05 11:20:21;;;;;;;10.60;9.80;;;20.40;99.90;;;;;;5027107;28;20209;-78
2022/06/05 11:22:58;;;;;;;10.38;9.57;;;20.20;99.90;;;;;;5025968;28;20226;-78
2022/06/05 11:25:30;;;;;;;9.90;9.00;;;20.20;99.90;;;;;;5030953;28;20205;-78
2022/06/05 11:28:10;;;;;;;10.00;9.15;;;20.00;99.90;;;;;;5033646;28;20685;-78
2022/06/05 11:30:46;;;;;;;10.73;9.93;;;19.90;99.90;;;;;;5027607;28;20212;-78
2022/06/05 11:33:21;;;;;;;11.27;10.32;;;20.00;99.90;;;;;;5068143;28;20218;-78
2022/06/05 11:35:59;;;;;;;11.95;11.02;;;20.20;99.90;;;;;;5028735;28;20194;-78
2022/06/05 11:38:41;;;;;;;11.35;10.38;;;20.30;99.90;;;;;;5030672;28;20203;-79
2022/06/05 11:41:27;;;;;;;12.25;11.18;;;20.40;99.90;;;;;;5028560;28;20209;-78
2022/06/05 11:44:15;;;;;;;11.63;10.65;;;20.40;99.90;;;;;;5059807;28;20203;-78
2022/06/05 11:46:52;;;;;;;13.23;12.23;;;20.50;99.90;;;;;;5046823;28;20202;-78
2022/06/05 11:49:36;;;;;;;12.63;11.63;;;20.70;99.90;;;;;;5030963;28;20599;-78
2022/06/05 11:52:14;;;;;;;12.85;11.85;;;20.60;99.90;;;;;;5064230;28;20219;-79
2022/06/05 11:54:51;;;;;;;12.32;11.43;;;20.60;99.90;;;;;;5027244;28;20214;-78
2022/06/05 11:57:31;;;;;;;12.10;11.10;;;20.50;99.90;;;;;;5031746;28;20684;-78
2022/06/05 12:00:05;;;;;;;12.85;11.85;;;20.60;99.90;;;;;;5033568;28;20642;-79
2022/06/05 12:03:00;;;;;;;12.27;11.23;;;20.60;99.90;;;;;;5029300;28;20211;-80
2022/06/05 12:05:43;;;;;;;12.35;11.35;;;20.80;99.90;;;;;;5041408;28;20206;-78
2022/06/05 12:08:31;;;;;;;12.15;11.15;;;20.50;99.90;;;;;;5024692;28;20211;-78
2022/06/05 12:11:05;;;;;;;12.05;11.05;;;20.50;99.90;;;;;;5024342;28;20206;-78
2022/06/05 12:13:52;;;;;;;12.38;11.48;;;20.70;99.90;;;;;;5029174;28;20234;-78
2022/06/05 12:16:30;;;;;;;12.02;10.93;;;20.50;99.90;;;;;;5022016;28;20715;-79
2022/06/05 12:19:07;;;;;;;13.20;11.95;;;20.60;99.90;;;;;;5026654;28;20191;-78
2022/06/05 12:21:50;;;;;;;14.68;13.32;;;20.80;99.90;;;;;;5025286;28;20219;-78
2022/06/05 12:24:23;;;;;;;12.38;11.40;;;20.90;99.90;;;;;;5030986;28;20218;-78
2022/06/05 12:26:55;;;;;;;11.70;10.80;;;20.90;99.90;;;;;;5036776;28;20217;-79
2022/06/05 12:29:33;;;;;;;12.60;11.63;;;21.10;99.90;;;;;;5029206;28;20212;-79
2022/06/05 12:32:07;;;;;;;11.65;10.75;;;21.30;99.90;;;;;;5029197;28;20241;-78
2022/06/05 12:35:07;;;;;;;10.73;9.93;;;21.40;99.90;;;;;;5032434;28;20214;-78
2022/06/05 12:37:40;;;;;;;11.77;10.77;;;21.80;99.90;;;;;;5019722;28;20218;-79
2022/06/05 12:40:17;;;;;;;10.90;10.10;;;21.70;99.90;;;;;;5040445;28;20577;-79
2022/06/05 12:43:06;;;;;;;11.02;10.13;;;21.60;99.90;;;;;;5042459;28;20233;-79
2022/06/05 12:45:41;;;;;;;9.82;9.02;;;21.60;99.90;;;;;;5031839;28;20213;-79
2022/06/05 12:48:22;;;;;;;10.30;9.40;;;21.70;99.90;;;;;;5022263;28;20222;-79
2022/06/05 12:51:14;;;;;;;9.43;8.73;;;21.80;99.90;;;;;;5026899;28;20676;-79
2022/06/05 12:53:51;;;;;;;9.90;9.13;;;21.80;99.90;;;;;;5040438;28;20191;-78
2022/06/05 12:56:30;;;;;;;9.43;8.73;;;21.70;99.90;;;;;;5019142;28;20205;-78
2022/06/05 12:59:06;;;;;;;9.38;8.70;;;21.90;99.90;;;;;;5041465;28;20532;-78
2022/06/05 13:01:46;;;;;;;9.98;9.27;;;22.40;99.90;;;;;;5042430;28;20230;-79
2022/06/05 13:04:27;;;;;;;10.30;9.50;;;22.70;99.90;;;;;;5026470;28;20202;-79
2022/06/05 13:07:01;;;;;;;9.90;9.10;;;22.60;99.90;;;;;;5057951;28;20199;-78
2022/06/05 13:09:33;;;;;;;8.88;8.18;;;22.60;99.90;;;;;;5028083;28;20199;-79
2022/06/05 13:12:24;;;;;;;8.50;7.88;;;22.50;99.90;;;;;;5028628;28;20215;-79
2022/06/05 13:14:59;;;;;;;8.73;8.02;;;22.50;99.90;;;;;;5029339;28;20215;-79
2022/06/05 13:17:46;;;;;;;8.93;8.32;;;22.70;99.90;;;;;;5024662;28;20190;-79
2022/06/05 13:20:21;;;;;;;9.68;8.88;;;22.60;99.90;;;;;;5030345;28;20186;-79
2022/06/05 13:23:19;;;;;;;10.05;9.35;;;22.40;99.90;;;;;;5026161;28;20234;-79
2022/06/05 13:26:04;;;;;;;9.75;8.95;;;22.40;99.90;;;;;;5027041;28;20203;-80
2022/06/05 13:29:08;;;;;;;10.23;9.35;;;22.40;99.90;;;;;;5029271;28;20211;-79
2022/06/05 13:31:48;;;;;;;10.20;9.32;;;22.30;99.90;;;;;;5032501;28;20219;-79
2022/06/05 13:34:24;;;;;;;10.02;9.30;;;22.30;99.90;;;;;;5040117;28;20195;-79
2022/06/05 13:36:58;;;;;;;10.23;9.43;;;22.30;99.90;;;;;;5026999;28;20543;-81
2022/06/05 13:39:39;;;;;;;11.43;10.52;;;22.50;99.90;;;;;;5041960;28;20580;-79
2022/06/05 13:42:15;;;;;;;11.07;10.18;;;22.30;99.90;;;;;;5025503;28;20218;-79